Terminal Aerodrome Forecast
Issued by NWS Upton, NY

Current Version | Previous Version | Text Only | Print | Product List | Glossary On
Versions: 1 2 3 4 5 6 7 8 9 10 11 12 13 14 15 16 17 18 19 20 21 22 23 24 25 26 27 28 29 30 31 32 33
000
FTUS41 KOKX 182300
TAFEWR
TAF
KEWR 182330Z 1900/2006 35010KT P6SM FEW070 SCT100
     FM190600 01012G17KT P6SM SCT070
     FM191200 04012G18KT P6SM FEW030 SCT050
     FM191800 09012KT P6SM FEW035 FEW250
     FM192100 13010KT P6SM SCT035 SCT250
     FM200300 12005KT P6SM SCT035 SCT250=

USA.gov is the U.S. government's official web portal to all federal, state and local government web resources and services.